Time;durP1;ratioP1;P1;durP2;ratioP2;P2;SDS_P1;SDS_P2;PMS_P1;PMS_P2;Temp;Humidity;BMP_temperature;BMP_pressure;BME280_temperature;BME280_humidity;BME280_pressure;Samples;Min_cycle;Max_cycle;Signal;HPM_P1;HPM_P2
2021/12/17 11:56:35;;;;;;;;;43.75;31.00;;;;;7.53;89.92;103613.75;6139195;22;1312541;-74
2021/12/17 11:59:02;;;;;;;;;35.25;30.50;;;;;7.33;89.60;103575.09;6249558;22;45160;-73
2021/12/17 12:02:05;;;;;;;;;30.00;25.25;;;;;7.61;89.63;103601.69;6249383;22;45226;-73
2021/12/17 12:04:33;;;;;;;;;30.50;25.50;;;;;7.71;89.58;103598.38;6245798;22;45445;-73
2021/12/17 12:07:16;;;;;;;;;35.25;31.25;;;;;7.46;89.32;103541.34;6241849;22;45284;-74
2021/12/17 12:10:10;;;;;;;;;33.50;27.00;;;;;7.83;89.12;103597.69;6243245;22;45169;-74
2021/12/17 12:12:40;;;;;;;;;35.75;31.50;;;;;7.90;89.11;103586.47;6243152;22;45190;-72
2021/12/17 12:15:22;;;;;;;;;50.75;34.25;;;;;7.95;88.83;103590.03;6243018;22;45325;-73
2021/12/17 12:17:57;;;;;;;;;37.50;35.50;;;;;8.02;88.92;103595.38;6242706;22;45274;-73
2021/12/17 12:20:55;;;;;;;;;44.50;32.50;;;;;8.06;88.83;103590.19;6215350;22;45224;-73
2021/12/17 12:23:32;;;;;;;;;51.75;39.00;;;;;8.13;88.73;103583.31;6242524;22;45331;-71
2021/12/17 12:28:41;;;;;;;;;38.25;33.25;;;;;8.15;88.86;103579.88;6242711;22;45180;-72
2021/12/17 12:31:06;;;;;;;;;37.25;32.00;;;;;8.16;88.61;103581.63;6243040;22;45281;-73
2021/12/17 12:33:32;;;;;;;;;34.25;30.00;;;;;8.19;88.69;103579.06;6215054;22;45305;-73
2021/12/17 12:35:57;;;;;;;;;38.75;32.75;;;;;8.19;88.55;103575.56;6243061;22;45275;-72
2021/12/17 12:38:29;;;;;;;;;31.25;27.50;;;;;8.22;88.55;103582.56;6242711;22;46329;-72
2021/12/17 12:40:57;;;;;;;;;37.25;28.50;;;;;8.22;88.66;103578.22;6242598;22;45283;-71
2021/12/17 12:43:30;;;;;;;;;49.75;33.75;;;;;8.26;88.68;103581.75;6242565;22;45286;-72
2021/12/17 12:45:56;;;;;;;;;43.75;27.25;;;;;8.26;88.69;103577.41;6242922;22;45317;-73
2021/12/17 12:48:38;;;;;;;;;37.75;33.00;;;;;8.27;88.71;103573.91;6242829;22;46084;-73
2021/12/17 12:51:18;;;;;;;;;41.25;33.00;;;;;8.27;88.85;103576.53;6243193;22;45223;-72
2021/12/17 12:53:46;;;;;;;;;52.75;40.25;;;;;8.22;88.83;103572.09;6215281;22;45322;-72
2021/12/17 12:56:19;;;;;;;;;46.50;36.50;;;;;8.02;88.81;103530.00;6242502;22;45359;-73
2021/12/17 12:58:48;;;;;;;;;44.00;36.25;;;;;7.77;89.23;103493.06;6242210;22;45252;-73
2021/12/17 13:01:15;;;;;;;;;54.75;35.25;;;;;8.20;89.19;103566.84;6242882;22;45129;-75
2021/12/17 13:03:41;;;;;;;;;48.00;37.00;;;;;8.23;89.11;103563.41;6242959;22;45233;-74
2021/12/17 13:06:09;;;;;;;;;50.00;35.75;;;;;8.22;89.11;103569.50;6241757;22;45338;-74
2021/12/17 13:08:35;;;;;;;;;41.00;33.00;;;;;8.22;89.14;103570.34;6242783;22;45174;-73
2021/12/17 13:11:06;;;;;;;;;37.00;32.00;;;;;8.23;89.39;103558.19;6242843;22;45115;-74
2021/12/17 13:13:45;;;;;;;;;51.25;35.75;;;;;8.25;89.63;103551.22;6243143;22;45227;-73
2021/12/17 13:24:11;;;;;;;;;50.25;38.00;;;;;8.31;89.19;103556.53;6242587;22;45331;-75
2021/12/17 13:26:58;;;;;;;;;41.75;33.50;;;;;8.13;89.14;103524.03;6215007;22;45376;-74
2021/12/17 13:29:30;;;;;;;;;49.25;38.25;;;;;8.30;89.18;103552.16;6241213;22;45369;-74
2021/12/17 13:32:09;;;;;;;;;50.50;40.75;;;;;8.29;89.45;103550.41;6242633;22;45319;-73
2021/12/17 13:34:46;;;;;;;;;52.50;41.25;;;;;8.29;89.36;103553.03;6242424;22;45118;-74
2021/12/17 13:37:24;;;;;;;;;23.25;15.75;;;;;8.28;89.31;103549.53;6243011;22;45233;-74
2021/12/17 13:40:01;;;;;;;;;51.50;41.00;;;;;8.32;89.26;103543.47;6242676;22;45860;-74
2021/12/17 13:42:31;;;;;;;;;53.50;40.75;;;;;8.31;89.15;103543.44;6242633;22;45232;-72
2021/12/17 13:44:57;;;;;;;;;47.25;34.25;;;;;8.29;89.57;103535.56;6242260;22;45184;-73
2021/12/17 13:47:34;;;;;;;;;47.25;38.50;;;;;8.19;88.86;103529.38;6242872;22;45137;-76
2021/12/17 13:50:13;;;;;;;;;49.50;36.50;;;;;8.23;88.45;103537.25;6242123;22;46269;-73
2021/12/17 13:53:13;;;;;;;;;50.50;38.75;;;;;8.14;89.15;103525.81;6245655;22;45372;-74
2021/12/17 13:55:42;;;;;;;;;43.00;38.25;;;;;8.16;88.92;103536.28;6238650;22;45214;-73
2021/12/17 13:58:19;;;;;;;;;47.75;36.25;;;;;8.15;88.95;103537.13;6244650;22;45436;-74
2021/12/17 14:00:49;;;;;;;;;46.25;39.75;;;;;8.11;88.87;103540.59;6243176;22;45187;-73
2021/12/17 14:03:16;;;;;;;;;46.75;39.00;;;;;8.09;89.13;103524.88;6242580;22;45248;-74
2021/12/17 14:06:01;;;;;;;;;40.25;33.75;;;;;8.08;89.23;103540.53;6242159;22;45263;-73
2021/12/17 14:08:26;;;;;;;;;41.50;36.00;;;;;8.07;89.49;103530.94;6214606;22;45313;-75
2021/12/17 14:10:56;;;;;;;;;41.25;34.75;;;;;8.05;89.63;103536.16;6242398;22;45303;-73
2021/12/17 14:13:26;;;;;;;;;44.00;35.00;;;;;7.78;89.65;103486.94;6214790;22;45173;-75
2021/12/17 14:15:54;;;;;;;;;46.00;35.75;;;;;8.02;89.46;103532.63;6241979;22;45283;-74
2021/12/17 14:18:22;;;;;;;;;48.50;37.00;;;;;7.72;89.51;103484.28;6242503;22;45323;-74
2021/12/17 14:20:53;;;;;;;;;46.50;35.00;;;;;8.02;89.86;103530.00;6214501;22;45593;-74
2021/12/17 14:23:25;;;;;;;;;40.00;34.75;;;;;8.05;89.83;103530.03;6242503;22;45440;-74
2021/12/17 14:25:52;;;;;;;;;35.25;32.25;;;;;8.05;90.11;103528.31;6215324;22;45937;-76
2021/12/17 14:28:21;;;;;;;;;50.25;37.50;;;;;8.04;89.80;103529.16;6242107;22;45231;-74
2021/12/17 14:30:57;;;;;;;;;40.00;32.75;;;;;7.38;89.72;103410.63;6242423;22;46025;-74
2021/12/17 14:33:31;;;;;;;;;47.25;34.00;;;;;7.89;89.52;103500.19;6242362;22;45181;-77
2021/12/17 14:36:04;;;;;;;;;39.75;33.00;;;;;7.99;89.90;103523.88;6242310;22;45256;-76
2021/12/17 14:38:40;;;;;;;;;36.75;33.00;;;;;7.97;89.73;103520.34;6242582;22;45260;-77
2021/12/17 14:41:15;;;;;;;;;38.00;33.50;;;;;7.70;89.98;103480.75;6217733;22;47203;-76
2021/12/17 14:43:49;;;;;;;;;43.50;35.50;;;;;7.97;89.92;103528.19;6246292;22;45255;-74
2021/12/17 14:46:31;;;;;;;;;35.75;26.00;;;;;7.98;90.18;103536.94;6245006;22;45277;-73
2021/12/17 15:05:30;;;;;;;;;34.00;31.50;;;;;7.84;90.60;103525.41;6241311;22;45335;-74
2021/12/17 15:07:58;;;;;;;;;34.75;31.75;;;;;7.87;90.43;103539.38;6241735;22;45234;-74
2021/12/17 15:10:25;;;;;;;;;37.25;30.00;;;;;7.83;90.63;103537.56;6242136;22;45125;-73
2021/12/17 15:12:56;;;;;;;;;35.00;29.25;;;;;7.81;90.76;103528.81;6241332;22;47028;-74
2021/12/17 15:15:24;;;;;;;;;28.50;25.00;;;;;7.79;91.26;103536.63;6241374;22;45192;-74
2021/12/17 15:17:52;;;;;;;;;37.75;33.00;;;;;7.70;91.05;103519.97;6242035;22;45362;-75
2021/12/17 15:20:23;;;;;;;;;39.00;29.75;;;;;7.65;90.81;103517.25;6241691;22;45294;-74
2021/12/17 15:22:50;;;;;;;;;32.00;31.50;;;;;7.65;91.26;103516.41;6214143;22;47119;-74
2021/12/17 15:25:16;;;;;;;;;37.75;29.25;;;;;7.71;91.04;103535.66;6241743;22;45284;-74
2021/12/17 15:27:43;;;;;;;;;34.75;28.25;;;;;7.25;91.20;103459.19;6241825;22;45252;-74
2021/12/17 15:30:18;;;;;;;;;35.00;26.75;;;;;7.71;91.76;103529.53;6241021;22;45379;-74
2021/12/17 15:32:43;;;;;;;;;38.25;30.75;;;;;7.53;91.83;103512.75;6241402;22;45530;-74
2021/12/17 15:35:12;;;;;;;;;37.50;32.50;;;;;7.62;91.79;103519.81;6241916;22;45386;-74
2021/12/17 15:37:41;;;;;;;;;31.75;30.25;;;;;7.66;91.93;103533.81;6241469;22;45118;-75
2021/12/17 15:40:08;;;;;;;;;33.75;30.75;;;;;7.60;92.30;103518.94;6242427;22;45413;-74
2021/12/17 15:42:33;;;;;;;;;34.75;29.75;;;;;7.65;92.06;103526.84;6242741;22;47040;-74
2021/12/17 15:44:59;;;;;;;;;32.25;26.75;;;;;7.63;92.00;103532.03;6242595;22;45218;-74
2021/12/17 15:47:24;;;;;;;;;31.00;27.75;;;;;7.50;92.41;103504.84;6215883;22;45304;-75
2021/12/17 15:49:50;;;;;;;;;42.75;30.25;;;;;7.60;92.27;103532.91;6243356;22;45310;-76
2021/12/17 15:52:16;;;;;;;;;37.50;31.50;;;;;6.58;92.52;103352.81;6242802;22;46072;-75
2021/12/17 15:54:41;;;;;;;;;48.00;34.75;;;;;7.58;92.47;103534.56;6242399;22;45207;-77
2021/12/17 15:57:08;;;;;;;;;34.75;27.50;;;;;7.50;92.38;103515.31;6243029;22;45098;-76
2021/12/17 15:59:34;;;;;;;;;36.25;26.50;;;;;7.59;92.50;103530.25;6243143;22;45112;-74
2021/12/17 16:02:02;;;;;;;;;49.50;35.25;;;;;7.48;92.84;103513.50;6242872;22;45188;-75
2021/12/17 16:04:31;;;;;;;;;36.50;27.25;;;;;7.28;93.00;103482.72;6242213;22;45343;-76
2021/12/17 16:06:58;;;;;;;;;36.75;31.25;;;;;7.38;93.01;103496.81;6243100;22;45195;-76
2021/12/17 16:12:09;;;;;;;;;32.50;31.25;;;;;7.59;92.86;103531.13;6242803;22;45160;-75
2021/12/17 16:22:47;;;;;;;;;45.25;39.75;;;;;7.17;93.28;103471.25;6242492;22;45244;-74
2021/12/17 16:25:12;;;;;;;;;46.75;35.50;;;;;7.46;93.19;103521.34;6215210;22;45360;-75
2021/12/17 16:27:37;;;;;;;;;37.75;34.25;;;;;7.56;93.13;103536.28;6242583;22;45153;-75
2021/12/17 16:30:04;;;;;;;;;41.50;34.75;;;;;7.50;93.22;103527.50;6242946;22;45168;-75
2021/12/17 16:32:30;;;;;;;;;39.00;32.75;;;;;7.50;93.36;103537.94;6242748;22;45922;-74
2021/12/17 16:34:55;;;;;;;;;40.00;33.75;;;;;7.57;93.00;103532.84;6242394;22;45328;-74
2021/12/17 16:37:21;;;;;;;;;42.50;37.25;;;;;7.57;93.41;103537.19;6215382;22;45225;-75
2021/12/17 16:39:47;;;;;;;;;36.25;32.25;;;;;7.24;93.22;103487.03;6245205;22;45431;-76
2021/12/17 16:42:16;;;;;;;;;40.25;33.00;;;;;6.84;93.35;103413.28;6243654;22;45995;-76
2021/12/17 16:47:34;;;;;;;;;35.50;28.25;;;;;7.46;93.84;103520.44;6179372;23;45433;-75
2021/12/17 16:50:01;;;;;;;;;34.50;26.25;;;;;7.28;93.68;103493.16;6179030;23;45314;-75
2021/12/17 16:52:28;;;;;;;;;39.75;31.50;;;;;7.57;93.69;103540.69;6178542;23;46276;-76
2021/12/17 16:54:59;;;;;;;;;42.50;33.75;;;;;6.76;93.57;103407.03;6153957;23;45210;-76
2021/12/17 16:57:26;;;;;;;;;42.00;30.75;;;;;7.46;93.77;103520.44;6179585;23;45415;-76
2021/12/17 16:59:53;;;;;;;;;35.00;33.50;;;;;7.48;93.86;103526.56;6179664;23;45249;-76
2021/12/17 17:02:19;;;;;;;;;34.00;31.00;;;;;7.55;93.96;103541.50;6179542;23;45255;-76
2021/12/17 17:04:44;;;;;;;;;82.50;63.50;;;;;7.06;93.89;103454.53;6178752;23;45647;-75
2021/12/17 17:07:10;;;;;;;;;43.00;36.25;;;;;7.46;93.75;103518.75;6179592;23;45281;-75
2021/12/17 17:09:35;;;;;;;;;32.50;31.00;;;;;7.27;93.81;103480.13;6178922;23;45201;-75
2021/12/17 17:12:05;;;;;;;;;35.50;31.25;;;;;7.30;93.80;103485.38;6179409;23;45356;-75
2021/12/17 17:14:32;;;;;;;;;39.25;32.75;;;;;7.53;93.76;103538.88;6177184;23;45317;-74
2021/12/17 17:16:59;;;;;;;;;42.25;35.25;;;;;7.12;93.89;103467.66;6178719;23;45210;-75
2021/12/17 17:19:24;;;;;;;;;39.25;35.50;;;;;7.08;94.03;103463.25;6179526;23;45295;-76
2021/12/17 17:21:50;;;;;;;;;36.75;33.25;;;;;7.55;94.08;103536.25;6178979;23;46099;-76
2021/12/17 17:24:17;;;;;;;;;46.00;38.00;;;;;7.55;94.51;103536.25;6204170;22;45215;-76
2021/12/17 17:26:44;;;;;;;;;32.75;26.00;;;;;7.57;94.11;103538.06;6214964;22;45379;-76
2021/12/17 17:29:10;;;;;;;;;33.50;28.75;;;;;7.60;94.64;103530.28;6242786;22;45336;-76
2021/12/17 17:31:36;;;;;;;;;39.50;34.75;;;;;7.39;94.24;103494.25;6242494;22;45350;-77
2021/12/17 17:34:05;;;;;;;;;36.75;32.00;;;;;7.28;94.23;103490.56;6215452;22;45252;-77
2021/12/17 17:36:30;;;;;;;;;43.75;38.00;;;;;7.39;94.21;103502.09;6241812;22;45417;-76
2021/12/17 17:38:57;;;;;;;;;44.00;35.75;;;;;7.59;94.18;103535.47;6242946;22;45193;-76
2021/12/17 17:41:25;;;;;;;;;43.50;36.00;;;;;7.59;94.44;103528.50;6242096;22;46937;-76
2021/12/17 17:43:53;;;;;;;;;49.50;38.50;;;;;7.63;94.50;103523.34;6214932;22;45875;-77
2021/12/17 17:46:19;;;;;;;;;56.75;42.25;;;;;7.50;94.43;103517.91;6242916;22;45203;-76
2021/12/17 17:48:45;;;;;;;;;52.75;38.50;;;;;7.47;94.47;103512.63;6242253;22;45149;-78
2021/12/17 17:51:10;;;;;;;;;59.00;43.50;;;;;7.53;94.36;103514.47;6241845;22;45264;-78
2021/12/17 17:53:36;;;;;;;;;59.25;45.00;;;;;7.47;94.39;103496.97;6242421;22;45252;-79
2021/12/17 17:56:02;;;;;;;;;44.75;35.00;;;;;7.49;94.34;103499.59;6242883;22;45355;-78
2021/12/17 17:58:27;;;;;;;;;51.50;40.75;;;;;7.61;94.64;103529.41;6214725;22;45567;-76
2021/12/17 18:00:53;;;;;;;;;55.50;39.75;;;;;6.58;94.52;103355.44;6242919;22;46001;-77
2021/12/17 18:03:18;;;;;;;;;49.50;38.25;;;;;7.24;94.61;103468.75;6241562;22;45322;-77
2021/12/17 18:05:44;;;;;;;;;47.25;38.25;;;;;7.26;94.60;103473.13;6243258;22;45241;-77
2021/12/17 18:08:10;;;;;;;;;58.25;42.00;;;;;7.66;94.61;103532.09;6242205;22;45250;-77
2021/12/17 18:10:36;;;;;;;;;57.25;44.00;;;;;7.65;94.65;103538.16;6243289;22;45281;-77
2021/12/17 18:13:05;;;;;;;;;48.00;37.00;;;;;7.66;94.72;103542.56;6242782;22;45213;-78
2021/12/17 18:15:30;;;;;;;;;46.50;39.50;;;;;7.69;94.63;103539.09;6242059;22;45250;-78
2021/12/17 18:17:57;;;;;;;;;55.00;41.25;;;;;7.70;94.62;103541.75;6242591;22;45283;-78
2021/12/17 18:20:23;;;;;;;;;54.75;42.00;;;;;7.71;94.42;103538.28;6243112;22;45271;-78
2021/12/17 18:22:51;;;;;;;;;57.75;44.00;;;;;7.55;94.32;103510.13;6243204;22;45462;-77
2021/12/17 18:25:17;;;;;;;;;52.75;42.00;;;;;7.35;94.31;103465.44;6242431;22;45357;-77
2021/12/17 18:27:44;;;;;;;;;51.00;42.75;;;;;7.59;94.10;103515.44;6245088;22;45194;-78
2021/12/17 18:30:12;;;;;;;;;56.00;43.00;;;;;7.77;94.33;103537.50;6243458;22;45335;-78
2021/12/17 18:32:43;;;;;;;;;62.00;46.25;;;;;7.76;93.97;103544.47;6245094;22;45404;-78
2021/12/17 18:35:10;;;;;;;;;55.00;43.00;;;;;7.59;94.35;103519.81;6228415;22;45239;-77
2021/12/17 18:37:36;;;;;;;;;55.25;43.00;;;;;7.75;94.20;103550.53;6266697;22;44619;-75
2021/12/17 18:40:05;;;;;;;;;50.50;42.50;;;;;7.74;93.99;103546.16;6240105;22;45237;-77
2021/12/17 18:45:22;;;;;;;;;56.75;43.75;;;;;7.52;94.22;103504.88;6234201;22;45424;-78
2021/12/17 18:47:47;;;;;;;;;58.75;46.50;;;;;7.59;94.24;103523.28;6252296;22;45320;-77
2021/12/17 18:50:13;;;;;;;;;68.00;49.50;;;;;7.50;94.10;103501.38;6249233;22;46268;-79
2021/12/17 18:52:39;;;;;;;;;58.00;44.75;;;;;7.77;94.01;103543.59;6247309;22;45172;-77
2021/12/17 18:55:04;;;;;;;;;56.75;42.00;;;;;7.78;94.17;103537.50;6219195;22;45363;-77
2021/12/17 18:57:31;;;;;;;;;54.50;44.75;;;;;7.80;94.17;103545.38;6255866;22;44693;-80
2021/12/17 18:59:57;;;;;;;;;63.25;46.00;;;;;7.68;94.12;103525.16;6243423;22;47018;-81
2021/12/17 19:02:23;;;;;;;;;57.25;41.75;;;;;7.56;93.92;103502.31;6254958;22;44607;-80
2021/12/17 19:04:49;;;;;;;;;65.00;47.50;;;;;7.81;94.19;103547.13;6253242;22;45172;-80
2021/12/17 19:07:14;;;;;;;;;63.00;46.00;;;;;7.84;94.11;103543.69;6251103;22;45138;-81
2021/12/17 19:09:40;;;;;;;;;58.00;45.25;;;;;7.83;93.80;103542.78;6251152;22;45173;-81
2021/12/17 19:12:06;;;;;;;;;65.75;47.75;;;;;7.83;93.97;103540.19;6253364;22;45359;-81
2021/12/17 19:14:33;;;;;;;;;64.50;46.50;;;;;7.85;94.11;103542.81;6252495;22;45351;-81
2021/12/17 19:16:58;;;;;;;;;56.75;44.00;;;;;7.86;94.11;103545.47;6251043;22;45400;-82
2021/12/17 19:19:27;;;;;;;;;63.25;48.50;;;;;7.87;93.85;103539.38;6249891;22;45847;-83
2021/12/17 19:22:13;;;;;;;;;60.25;42.75;;;;;7.78;94.02;103528.78;6251568;22;45229;-82
2021/12/17 19:24:38;;;;;;;;;57.00;47.75;;;;;7.88;93.88;103537.66;6251907;22;44766;-82
2021/12/17 19:27:03;;;;;;;;;60.75;48.00;;;;;7.89;94.07;103548.13;6251431;22;45086;-79
2021/12/17 19:29:29;;;;;;;;;57.00;44.75;;;;;7.90;93.57;103541.16;6265126;22;45218;-84
2021/12/17 19:31:55;;;;;;;;;59.25;45.50;;;;;7.90;93.61;103538.53;6269499;22;44637;-82
2021/12/17 19:34:20;;;;;;;;;56.50;44.00;;;;;7.91;93.82;103543.78;6266075;22;45164;-85
2021/12/17 19:36:48;;;;;;;;;62.00;47.00;;;;;7.91;93.68;103535.94;6231005;22;44734;-86
2021/12/17 19:39:14;;;;;;;;;53.75;43.00;;;;;7.92;93.12;103544.66;6219658;22;47443;-84
2021/12/17 19:41:39;;;;;;;;;53.75;43.25;;;;;7.60;92.93;103485.84;6249049;22;45249;-82
2021/12/17 19:44:05;;;;;;;;;53.75;44.00;;;;;7.93;92.96;103549.91;6253283;22;45347;-81
2021/12/17 19:46:40;;;;;;;;;64.50;45.75;;;;;7.92;92.68;103542.03;6248039;22;45279;-81
2021/12/17 19:49:44;;;;;;;;;56.50;47.00;;;;;7.67;92.70;103484.19;6243929;22;45393;-86
2021/12/17 19:51:56;;;;;;;;;56.50;45.00;;;;;7.70;92.39;103492.09;6242788;22;45161;-84
2021/12/17 19:54:21;;;;;;;;;59.50;45.75;;;;;7.97;92.09;103537.75;6243336;22;45343;-81
2021/12/17 19:56:47;;;;;;;;;48.75;39.75;;;;;7.80;91.06;103512.28;6244345;22;45195;-80
2021/12/17 19:59:12;;;;;;;;;55.75;42.50;;;;;7.99;91.26;103543.88;6244154;22;45510;-79
2021/12/17 20:01:38;;;;;;;;;56.00;42.75;;;;;7.88;91.21;103525.44;6245459;22;45343;-82
2021/12/17 20:04:07;;;;;;;;;55.75;43.25;;;;;7.83;90.64;103510.56;6243595;22;45314;-81
2021/12/17 20:06:36;;;;;;;;;58.25;46.75;;;;;7.59;90.58;103472.78;6243197;22;45415;-81
2021/12/17 20:09:04;;;;;;;;;58.50;41.25;;;;;7.99;90.58;103549.13;6243097;22;45243;-77
2021/12/17 20:11:29;;;;;;;;;50.75;41.75;;;;;7.86;90.88;103532.38;6242655;22;45324;-77
2021/12/17 20:13:55;;;;;;;;;62.75;45.75;;;;;7.99;90.72;103552.63;6242600;22;45263;-76
2021/12/17 20:16:20;;;;;;;;;55.25;44.00;;;;;8.02;90.76;103553.53;6216127;22;45423;-77
2021/12/17 20:18:46;;;;;;;;;52.25;41.50;;;;;7.99;90.45;103552.63;6243025;22;45135;-78
2021/12/17 20:21:13;;;;;;;;;53.50;43.50;;;;;7.65;90.14;103492.88;6215915;22;45316;-78
2021/12/17 20:23:39;;;;;;;;;49.50;39.00;;;;;7.37;89.74;103446.31;6240479;22;45300;-78
2021/12/17 20:26:07;;;;;;;;;58.75;46.75;;;;;7.87;89.75;103528.03;6214374;22;45232;-79
2021/12/17 20:28:35;;;;;;;;;55.25;41.00;;;;;7.92;89.92;103531.59;6189777;22;48377;-79
2021/12/17 20:31:02;;;;;;;;;56.25;41.75;;;;;7.80;89.15;103517.50;6215266;22;45213;-78
2021/12/17 20:33:29;;;;;;;;;52.25;40.75;;;;;8.00;89.39;103543.03;6240896;22;45284;-78
2021/12/17 20:35:55;;;;;;;;;41.50;38.50;;;;;7.63;88.75;103478.91;6243064;22;45185;-79
2021/12/17 20:38:21;;;;;;;;;46.00;39.25;;;;;8.02;88.87;103548.31;6242733;22;45239;-79
2021/12/17 20:40:47;;;;;;;;;52.50;39.00;;;;;7.89;88.66;103521.13;6242684;22;45246;-79
2021/12/17 20:43:19;;;;;;;;;56.25;41.50;;;;;7.90;88.86;103523.72;6243000;22;45170;-78
2021/12/17 20:45:45;;;;;;;;;46.50;39.50;;;;;7.91;89.03;103533.34;6241436;22;45351;-79
2021/12/17 20:48:12;;;;;;;;;47.00;39.25;;;;;8.01;88.20;103539.56;6242751;22;46102;-77
2021/12/17 20:50:39;;;;;;;;;53.25;39.00;;;;;7.37;87.87;103434.97;6242754;22;45280;-77
2021/12/17 20:53:08;;;;;;;;;50.00;41.25;;;;;7.82;87.76;103507.06;6242913;22;45275;-77
2021/12/17 20:55:35;;;;;;;;;46.00;38.50;;;;;7.81;87.48;103513.16;6242406;22;45293;-79
2021/12/17 20:58:01;;;;;;;;;48.50;37.75;;;;;7.97;87.55;103538.63;6242026;22;46638;-78
2021/12/17 21:00:28;;;;;;;;;39.50;34.25;;;;;7.99;87.87;103543.88;6215245;22;45936;-77
2021/12/17 21:02:56;;;;;;;;;45.25;35.50;;;;;7.75;87.64;103498.25;6242831;22;45250;-77
2021/12/17 21:05:22;;;;;;;;;38.00;33.25;;;;;8.02;87.94;103550.91;6242906;22;45302;-78
2021/12/17 21:07:48;;;;;;;;;37.50;29.50;;;;;8.02;87.82;103546.56;6242175;22;45163;-78
2021/12/17 21:10:15;;;;;;;;;44.50;35.75;;;;;8.03;87.83;103540.47;6242849;22;45115;-79
2021/12/17 21:12:42;;;;;;;;;48.75;35.00;;;;;8.02;87.57;103546.56;6243436;22;45459;-79
2021/12/17 21:15:13;;;;;;;;;52.25;37.25;;;;;7.77;87.37;103499.16;6242994;22;45307;-79
2021/12/17 21:17:39;;;;;;;;;50.50;37.50;;;;;7.87;87.15;103520.19;6243032;22;45214;-78
2021/12/17 21:20:08;;;;;;;;;49.75;37.00;;;;;8.03;87.82;103540.47;6243178;22;45221;-79
2021/12/17 21:22:34;;;;;;;;;43.25;35.00;;;;;7.58;87.43;103465.78;6243546;22;45333;-78
2021/12/17 21:24:59;;;;;;;;;50.75;38.00;;;;;8.03;87.07;103540.47;6243062;22;45216;-77
2021/12/17 21:27:25;;;;;;;;;46.75;33.25;;;;;8.03;87.31;103537.88;6215446;22;47106;-78
2021/12/17 21:29:50;;;;;;;;;41.50;35.25;;;;;8.03;87.24;103535.25;6243173;22;45263;-78
2021/12/17 21:32:16;;;;;;;;;44.00;38.75;;;;;8.04;87.32;103533.50;6242669;22;45168;-77
2021/12/17 21:34:41;;;;;;;;;47.25;36.75;;;;;8.06;87.08;103542.25;6215148;22;45253;-79
2021/12/17 21:37:07;;;;;;;;;44.75;37.75;;;;;7.17;87.18;103391.16;6243659;22;45507;-78
2021/12/17 21:39:33;;;;;;;;;42.50;34.00;;;;;7.58;86.80;103463.16;6216534;22;45258;-76
2021/12/17 21:41:59;;;;;;;;;45.75;35.75;;;;;7.10;86.57;103385.84;6243639;22;45165;-79
2021/12/17 21:44:26;;;;;;;;;39.00;34.75;;;;;7.90;86.58;103513.25;6242871;22;45363;-77
2021/12/17 21:46:52;;;;;;;;;44.25;34.75;;;;;7.90;87.01;103513.25;6242645;22;45289;-77
2021/12/17 21:49:17;;;;;;;;;44.50;33.00;;;;;7.81;86.36;103500.94;6242634;22;45236;-78
2021/12/17 21:51:43;;;;;;;;;44.75;36.00;;;;;7.95;86.90;103513.34;6215432;22;45286;-77
2021/12/17 21:54:08;;;;;;;;;51.00;38.25;;;;;8.04;87.06;103533.50;6242422;22;45276;-78
2021/12/17 21:56:34;;;;;;;;;37.50;35.00;;;;;7.54;86.41;103450.91;6242247;22;45420;-78
2021/12/17 21:58:59;;;;;;;;;42.75;35.00;;;;;7.92;86.45;103515.91;6242301;22;45351;-77
2021/12/17 22:01:25;;;;;;;;;44.25;39.25;;;;;7.97;86.22;103525.56;6242056;22;45314;-79
2021/12/17 22:03:53;;;;;;;;;34.25;31.25;;;;;7.95;85.85;103526.41;6242187;22;45243;-78
2021/12/17 22:06:19;;;;;;;;;39.25;33.75;;;;;7.96;85.86;103525.56;6242388;22;46224;-79
2021/12/17 22:08:45;;;;;;;;;38.75;34.75;;;;;7.95;86.23;103523.81;6242619;22;45175;-78
2021/12/17 22:11:11;;;;;;;;;38.50;29.75;;;;;7.82;85.44;103514.91;6242383;22;45398;-76
2021/12/17 22:13:37;;;;;;;;;35.50;31.75;;;;;7.91;85.72;103520.25;6241155;22;45308;-78
2021/12/17 22:16:03;;;;;;;;;38.25;32.50;;;;;7.89;85.33;103511.53;6242616;22;46251;-78
2021/12/17 22:18:31;;;;;;;;;34.50;30.00;;;;;7.80;85.21;103498.34;6242780;22;45749;-81
2021/12/17 22:21:04;;;;;;;;;37.25;31.50;;;;;7.79;84.85;103507.03;6241930;22;45229;-77
2021/12/17 22:23:30;;;;;;;;;34.25;33.25;;;;;7.86;85.11;103521.06;6242388;22;45303;-77
2021/12/17 22:25:56;;;;;;;;;40.25;29.50;;;;;7.85;85.49;103524.53;6242906;22;45304;-78
2021/12/17 22:28:23;;;;;;;;;34.50;30.75;;;;;7.85;85.36;103517.53;6252475;22;45691;-77
2021/12/17 22:30:49;;;;;;;;;38.75;34.25;;;;;7.54;84.97;103470.06;6250528;22;45142;-78
2021/12/17 22:33:15;;;;;;;;;38.25;27.75;;;;;7.56;84.95;103483.16;6244159;22;45226;-79
2021/12/17 22:35:41;;;;;;;;;35.00;30.50;;;;;7.79;85.26;103523.56;6243147;22;45153;-77
2021/12/17 22:38:08;;;;;;;;;31.75;30.00;;;;;7.70;85.25;103499.06;6242707;22;45277;-77
2021/12/17 22:40:36;;;;;;;;;45.75;37.00;;;;;7.56;85.18;103489.25;6242074;22;45324;-77
2021/12/17 22:43:06;;;;;;;;;32.00;30.75;;;;;7.68;84.71;103519.94;6241493;22;45385;-77
2021/12/17 22:45:33;;;;;;;;;31.25;27.00;;;;;7.54;84.97;103517.09;6241368;22;45303;-78
2021/12/17 22:48:00;;;;;;;;;34.50;26.50;;;;;7.26;85.30;103488.78;6241972;22;45336;-76
2021/12/17 22:50:26;;;;;;;;;30.00;23.50;;;;;7.04;85.79;103480.59;6242478;22;45276;-76
2021/12/17 22:52:53;;;;;;;;;28.75;25.50;;;;;7.18;86.52;103518.28;6242015;22;45347;-77
2021/12/17 22:55:19;;;;;;;;;30.25;28.75;;;;;6.93;86.50;103492.56;6241365;22;47101;-77
2021/12/17 22:57:44;;;;;;;;;29.25;24.00;;;;;7.07;86.82;103534.59;6239989;22;45253;-78
2021/12/17 23:00:13;;;;;;;;;27.50;23.25;;;;;6.92;86.88;103504.75;6242179;22;45096;-77
2021/12/17 23:02:39;;;;;;;;;32.00;26.75;;;;;6.53;87.38;103448.38;6215640;22;45252;-77
2021/12/17 23:05:07;;;;;;;;;31.25;25.25;;;;;6.85;87.47;103516.81;6241867;22;45430;-80
2021/12/17 23:07:54;;;;;;;;;36.50;28.25;;;;;6.70;88.02;103499.97;6241591;22;45239;-78
2021/12/17 23:10:23;;;;;;;;;27.25;25.75;;;;;6.65;88.41;103495.56;6241927;22;45263;-78
2021/12/17 23:12:50;;;;;;;;;33.50;29.50;;;;;6.68;88.56;103509.53;6240885;22;45283;-78
2021/12/17 23:15:16;;;;;;;;;29.00;26.00;;;;;6.64;88.61;103511.19;6242340;22;46067;-78
2021/12/17 23:17:42;;;;;;;;;33.50;31.75;;;;;6.59;88.82;103513.72;6242464;22;45161;-78
2021/12/17 23:20:07;;;;;;;;;33.50;28.75;;;;;6.31;88.76;103464.44;6243243;22;45169;-78
2021/12/17 23:22:34;;;;;;;;;40.75;31.75;;;;;6.24;89.09;103460.88;6243380;22;45403;-78
2021/12/17 23:25:00;;;;;;;;;38.50;29.25;;;;;6.36;89.14;103473.25;6242088;22;45527;-78
2021/12/17 23:27:26;;;;;;;;;33.50;29.75;;;;;5.49;89.32;103328.16;6243551;22;45145;-76
2021/12/17 23:29:51;;;;;;;;;31.25;28.75;;;;;6.42;89.60;103497.72;6242850;22;45228;-79
2021/12/17 23:32:18;;;;;;;;;32.00;30.00;;;;;6.07;89.53;103442.28;6243228;22;45251;-77
2021/12/17 23:34:47;;;;;;;;;26.50;25.00;;;;;6.36;89.78;103502.84;6242622;22;46468;-77
2021/12/17 23:37:14;;;;;;;;;36.25;31.25;;;;;6.34;89.88;103498.44;6221201;22;45186;-76
2021/12/17 23:39:41;;;;;;;;;34.75;30.75;;;;;6.04;90.24;103456.13;6249500;22;45201;-76
2021/12/17 23:42:07;;;;;;;;;30.50;24.25;;;;;5.92;90.06;103432.38;6244833;22;45491;-77
2021/12/17 23:44:34;;;;;;;;;34.25;29.75;;;;;6.29;90.20;103508.78;6242511;22;45381;-77
2021/12/17 23:46:59;;;;;;;;;34.50;29.25;;;;;6.24;90.35;103506.06;6242048;22;45251;-77
2021/12/17 23:49:25;;;;;;;;;28.00;25.50;;;;;6.22;90.07;103499.06;6241939;22;45350;-78
2021/12/17 23:51:50;;;;;;;;;36.50;29.00;;;;;6.06;90.65;103475.28;6241842;22;45339;-77
2021/12/17 23:54:16;;;;;;;;;39.00;34.00;;;;;6.16;90.56;103507.63;6241821;22;45334;-77
2021/12/17 23:56:43;;;;;;;;;39.00;32.50;;;;;6.14;90.85;103513.66;6241369;22;45192;-76
2021/12/17 23:59:08;;;;;;;;;31.75;25.75;;;;;6.00;90.86;103490.78;6241749;22;45373;-77
